LV-0003 weather

Saldus Airfield
Saldus District, Latvia

Public forecast

Using degrees Celsius for public forecast. Weather courtesy of forecast.io.

Closest aviation weather report (METAR) to Saldus Airfield

Closest report is Liepāja International Airport, 46.6 nm (86.2 km) WSW. Retrieved 2020/07/02 11:20 UTC (27 minutes ago):

EVLA 021120Z AUTO 23016KT 9999 BKN008 BKN012 BKN016 19/16 Q1005

Closest aviation forecast (TAF) to Saldus Airfield

Closest forecast is Liepāja International Airport, 46.6 nm (86.2 km) WSW. Retrieved 2020/07/02 09:07 UTC (3 hours ago):

TAF EVLA 020804Z 0209/0309 17007KT 9999 BKN020 TEMPO 0209/0210 VRB28KT 3000 -TSRA BKN010CB BECMG 0209/0210 24013KT TEMPO 0210/0216 23018G30KT SCT010CB